createdAt,value
2023-03-03T00:01:11.606Z,0.59
2023-03-03T00:03:39.410Z,0.39
2023-03-03T00:06:11.227Z,0.44
2023-03-03T00:08:39.600Z,0.34
2023-03-03T00:11:08.694Z,0.37
2023-03-03T00:13:45.804Z,0.31
2023-03-03T00:16:23.162Z,0.33
2023-03-03T00:18:51.559Z,0.30
2023-03-03T00:21:41.970Z,0.26
2023-03-03T00:24:18.744Z,-0.01
2023-03-03T00:26:48.995Z,0.33
2023-03-03T00:29:32.228Z,0.08
2023-03-03T00:32:16.928Z,0.19
2023-03-03T00:34:45.895Z,0.05
2023-03-03T00:37:26.699Z,0.08
2023-03-03T00:39:54.291Z,0.20
2023-03-03T00:42:24.427Z,0.09
2023-03-03T00:44:57.816Z,0.15
2023-03-03T00:47:31.261Z,0.31
2023-03-03T00:50:25.982Z,0.14
2023-03-03T00:53:01.632Z,0.07
2023-03-03T00:55:29.491Z,0.01
2023-03-03T00:57:58.929Z,0.00
2023-03-03T01:00:26.888Z,-0.29
2023-03-03T01:02:54.566Z,-0.08
2023-03-03T01:05:22.692Z,-0.12
2023-03-03T01:07:50.436Z,-0.22
2023-03-03T01:10:18.303Z,-0.07
2023-03-03T01:12:46.178Z,-0.28
2023-03-03T01:15:16.031Z,-0.07
2023-03-03T01:17:44.318Z,-0.09
2023-03-03T01:20:14.421Z,-0.20
2023-03-03T01:22:42.406Z,-0.24
2023-03-03T01:25:11.163Z,-0.14
2023-03-03T01:27:38.826Z,-0.33
2023-03-03T01:30:07.619Z,-0.29
2023-03-03T01:32:36.633Z,-0.30
2023-03-03T01:35:04.708Z,-0.41
2023-03-03T01:37:34.700Z,-0.26
2023-03-03T01:40:02.499Z,-0.07
2023-03-03T01:42:30.782Z,-0.12
2023-03-03T01:45:17.682Z,-0.14
2023-03-03T01:47:52.442Z,-0.27
2023-03-03T01:50:45.423Z,-0.32
2023-03-03T01:53:17.033Z,-0.31
2023-03-03T01:55:46.078Z,-0.26
2023-03-03T01:58:19.547Z,-0.41
2023-03-03T02:00:51.505Z,-0.46
2023-03-03T02:03:22.240Z,-0.46
2023-03-03T02:05:50.651Z,-0.28
2023-03-03T02:08:22.783Z,-0.37
2023-03-03T02:10:51.984Z,-0.51
2023-03-03T02:13:19.677Z,-0.45
2023-03-03T02:15:47.490Z,-0.26
2023-03-03T02:18:17.804Z,-0.25
2023-03-03T02:20:57.834Z,-0.31
2023-03-03T02:23:30.948Z,-0.46
2023-03-03T02:26:09.824Z,-0.47
2023-03-03T02:28:39.451Z,-0.56
2023-03-03T02:31:10.894Z,-0.45
2023-03-03T02:33:38.627Z,-0.70
2023-03-03T02:36:06.822Z,-0.90
2023-03-03T02:38:42.228Z,-0.83
2023-03-03T02:41:17.632Z,-0.81
2023-03-03T02:43:52.367Z,-0.83
2023-03-03T02:46:20.188Z,-0.74
2023-03-03T02:48:47.902Z,-0.91
2023-03-03T02:51:15.626Z,-0.97
2023-03-03T02:53:43.274Z,-1.11
2023-03-03T02:56:12.420Z,-1.05
2023-03-03T02:58:40.064Z,-0.95
2023-03-03T03:01:08.054Z,-0.91
2023-03-03T03:03:35.685Z,-0.91
2023-03-03T03:06:03.586Z,-0.86
2023-03-03T03:08:31.374Z,-0.87
2023-03-03T03:10:58.982Z,-0.89
2023-03-03T03:13:28.536Z,-0.86
2023-03-03T03:15:56.423Z,-0.91
2023-03-03T03:18:24.148Z,-0.88
2023-03-03T03:20:51.752Z,-0.74
2023-03-03T03:23:21.924Z,-0.93
2023-03-03T03:25:49.928Z,-0.89
2023-03-03T03:28:18.768Z,-0.98
2023-03-03T03:30:47.800Z,-1.08
2023-03-03T03:33:15.419Z,-1.22
2023-03-03T03:35:45.691Z,-1.26
2023-03-03T03:38:13.662Z,-1.30
2023-03-03T03:40:41.945Z,-1.22
2023-03-03T03:43:09.790Z,-1.20
2023-03-03T03:45:37.483Z,-1.25
2023-03-03T03:48:07.050Z,-1.17
2023-03-03T03:50:34.870Z,-1.30
2023-03-03T03:53:02.595Z,-1.27
2023-03-03T03:55:30.245Z,-1.36
2023-03-03T03:57:58.525Z,-1.31
2023-03-03T04:00:26.576Z,-1.31
2023-03-03T04:02:54.399Z,-1.40
2023-03-03T04:05:23.634Z,-1.32
2023-03-03T04:07:51.603Z,-1.32
2023-03-03T04:10:19.365Z,-1.22
2023-03-03T04:12:47.174Z,-1.26
2023-03-03T04:15:16.024Z,-1.27
2023-03-03T04:17:43.999Z,-1.31
2023-03-03T04:20:15.376Z,-1.27
2023-03-03T04:22:44.596Z,-1.24
2023-03-03T04:25:15.342Z,-1.30
2023-03-03T04:27:44.276Z,-1.29
2023-03-03T04:30:13.724Z,-1.33
2023-03-03T04:32:41.962Z,-1.35
2023-03-03T04:35:10.984Z,-1.32
2023-03-03T04:37:39.464Z,-1.24
2023-03-03T04:40:10.461Z,-1.33
2023-03-03T04:42:38.411Z,-1.36
2023-03-03T04:45:07.129Z,-1.32
2023-03-03T04:47:34.941Z,-1.36
2023-03-03T04:50:02.561Z,-1.38
2023-03-03T04:52:30.368Z,-1.40
2023-03-03T04:54:58.068Z,-1.29
2023-03-03T04:57:27.136Z,-1.20
2023-03-03T04:59:55.006Z,-1.37
2023-03-03T05:02:22.972Z,-1.40
2023-03-03T05:04:50.627Z,-1.43
2023-03-03T05:07:20.172Z,-1.37
2023-03-03T05:09:47.910Z,-1.33
2023-03-03T05:12:16.096Z,-1.48
2023-03-03T05:14:45.172Z,-1.32
2023-03-03T05:17:12.842Z,-1.11
2023-03-03T05:19:41.466Z,-0.93
2023-03-03T05:22:13.233Z,-1.24
2023-03-03T05:24:42.869Z,-1.22
2023-03-03T05:27:11.884Z,-1.36
2023-03-03T05:29:40.138Z,-1.31
2023-03-03T05:32:09.404Z,-1.31
2023-03-03T05:34:37.284Z,-1.12
2023-03-03T05:37:06.887Z,-1.01
2023-03-03T05:39:35.095Z,-0.96
2023-03-03T05:42:03.564Z,-0.59
2023-03-03T05:44:32.670Z,-0.29
2023-03-03T05:47:00.447Z,-0.31
2023-03-03T05:49:29.628Z,-0.26
2023-03-03T05:51:57.292Z,-0.20
2023-03-03T05:54:25.066Z,-0.37
2023-03-03T05:56:52.866Z,-0.39
2023-03-03T05:59:21.108Z,-0.21
2023-03-03T06:01:48.710Z,-0.23
2023-03-03T06:04:16.336Z,-0.08
2023-03-03T06:06:45.408Z,0.09
2023-03-03T06:09:13.089Z,0.30
2023-03-03T06:11:40.725Z,-0.26
2023-03-03T06:14:08.349Z,-0.23
2023-03-03T06:16:36.130Z,-0.45
2023-03-03T06:19:03.858Z,-0.58
2023-03-03T06:21:31.506Z,-0.49
2023-03-03T06:24:00.533Z,-0.34
2023-03-03T06:26:28.253Z,-0.42
2023-03-03T06:28:55.892Z,-0.70
2023-03-03T06:31:23.588Z,-0.83
2023-03-03T06:33:51.433Z,-0.94
2023-03-03T06:36:20.814Z,-1.03
2023-03-03T06:38:48.936Z,-1.00
2023-03-03T06:41:18.204Z,-0.86
2023-03-03T06:43:46.408Z,-0.82
2023-03-03T06:46:14.222Z,-0.85
2023-03-03T06:48:41.957Z,-0.83
2023-03-03T06:51:23.324Z,-0.74
2023-03-03T06:53:53.789Z,-0.80
2023-03-03T06:56:23.174Z,-0.81
2023-03-03T06:58:51.543Z,-0.94
2023-03-03T07:01:19.390Z,-1.02
2023-03-03T07:03:47.442Z,-0.88
2023-03-03T07:06:23.882Z,-0.65
2023-03-03T07:08:52.857Z,-0.74
2023-03-03T07:11:24.181Z,-0.59
2023-03-03T07:13:53.498Z,-0.36
2023-03-03T07:16:26.417Z,-0.27
2023-03-03T07:18:55.804Z,-0.04
2023-03-03T07:21:26.620Z,0.06
2023-03-03T07:23:54.936Z,0.17
2023-03-03T07:26:28.907Z,0.39
2023-03-03T07:28:59.561Z,0.65
2023-03-03T07:31:35.110Z,0.99
2023-03-03T07:34:05.249Z,1.23
2023-03-03T07:36:36.838Z,0.98
2023-03-03T07:39:15.476Z,1.11
2023-03-03T07:41:44.624Z,1.40
2023-03-03T07:44:20.175Z,1.51
2023-03-03T07:46:50.506Z,1.59
2023-03-03T07:49:23.808Z,1.86
2023-03-03T07:51:55.271Z,1.93
2023-03-03T07:54:32.913Z,2.16
2023-03-03T07:57:19.914Z,2.20
2023-03-03T07:59:49.650Z,2.11
2023-03-03T08:02:36.077Z,2.18
2023-03-03T08:05:34.796Z,2.50
2023-03-03T08:08:29.320Z,3.25
2023-03-03T08:10:57.936Z,3.75
2023-03-03T08:13:31.732Z,4.19
2023-03-03T08:16:02.989Z,4.17
2023-03-03T08:18:36.135Z,4.35
2023-03-03T08:21:04.336Z,4.30
2023-03-03T08:23:31.955Z,4.41
2023-03-03T08:25:59.633Z,4.44
2023-03-03T08:28:28.977Z,4.34
2023-03-03T08:31:13.004Z,4.47
2023-03-03T08:33:44.595Z,4.51
2023-03-03T08:36:13.036Z,4.44
2023-03-03T08:38:41.215Z,4.22
2023-03-03T08:41:08.931Z,5.39
2023-03-03T08:43:38.210Z,5.70
2023-03-03T08:46:07.625Z,5.37
2023-03-03T08:48:35.296Z,5.59
2023-03-03T08:51:03.446Z,4.69
2023-03-03T08:53:33.560Z,4.36
2023-03-03T08:56:01.224Z,4.70
2023-03-03T08:58:35.064Z,5.01
2023-03-03T09:01:05.512Z,5.11
2023-03-03T09:03:33.561Z,5.29
2023-03-03T09:06:01.265Z,5.38
2023-03-03T09:08:28.946Z,5.27
2023-03-03T09:10:56.643Z,5.87
2023-03-03T09:13:24.464Z,5.92
2023-03-03T09:15:52.253Z,5.32
2023-03-03T09:18:23.536Z,5.05
2023-03-03T09:20:52.504Z,5.77
2023-03-03T09:23:31.563Z,5.99
2023-03-03T09:26:00.259Z,5.20
2023-03-03T09:28:30.187Z,5.26
2023-03-03T09:30:59.296Z,5.77
2023-03-03T09:33:31.044Z,6.71
2023-03-03T09:36:05.116Z,6.72
2023-03-03T09:38:34.877Z,6.66
2023-03-03T09:41:25.507Z,6.94
2023-03-03T09:44:05.943Z,7.31
2023-03-03T09:46:42.302Z,7.16
2023-03-03T09:49:22.238Z,7.33
2023-03-03T09:52:16.434Z,6.04
2023-03-03T09:54:55.830Z,7.27
2023-03-03T09:57:30.654Z,7.73
2023-03-03T10:00:21.323Z,7.03
2023-03-03T10:03:04.848Z,7.56
2023-03-03T10:05:46.536Z,7.19
2023-03-03T10:08:31.752Z,8.28
2023-03-03T10:11:05.341Z,7.16
2023-03-03T10:13:44.635Z,6.96
2023-03-03T10:16:33.588Z,7.15
2023-03-03T10:19:04.495Z,7.77
2023-03-03T10:21:40.796Z,8.65
2023-03-03T10:24:24.722Z,8.94
2023-03-03T10:27:13.472Z,7.99
2023-03-03T10:29:51.346Z,8.47
2023-03-03T10:32:41.273Z,9.42
2023-03-03T10:35:42.504Z,9.07
2023-03-03T10:38:38.141Z,8.73
2023-03-03T10:41:21.330Z,7.76
2023-03-03T10:44:05.232Z,8.18
2023-03-03T10:46:51.614Z,8.48
2023-03-03T10:49:31.940Z,8.34
2023-03-03T10:52:26.719Z,9.46
2023-03-03T10:55:11.278Z,9.75
2023-03-03T10:57:48.075Z,9.34
2023-03-03T11:00:22.598Z,10.30
2023-03-03T11:03:22.391Z,10.04
2023-03-03T11:05:54.851Z,10.10
2023-03-03T11:08:29.470Z,9.85
2023-03-03T11:11:11.128Z,9.27
2023-03-03T11:13:47.009Z,9.51
2023-03-03T11:16:30.786Z,10.83
2023-03-03T11:19:11.541Z,9.57
2023-03-03T11:21:48.105Z,10.05
2023-03-03T11:24:32.965Z,10.61
2023-03-03T11:27:15.471Z,10.72
2023-03-03T11:29:57.372Z,10.22
2023-03-03T11:32:33.581Z,9.91
2023-03-03T11:35:20.661Z,10.38
2023-03-03T11:37:58.172Z,10.47
2023-03-03T11:40:28.800Z,10.57
2023-03-03T11:43:06.962Z,9.85
2023-03-03T11:45:41.310Z,10.29
2023-03-03T11:48:16.872Z,9.90
2023-03-03T11:50:53.803Z,10.84
2023-03-03T11:53:32.935Z,10.65
2023-03-03T11:56:08.543Z,10.22
2023-03-03T11:58:44.852Z,10.61
2023-03-03T12:01:21.010Z,10.12
2023-03-03T12:03:55.225Z,9.92
2023-03-03T12:06:31.580Z,10.70
2023-03-03T12:09:17.272Z,10.04
2023-03-03T12:11:52.208Z,10.46
2023-03-03T12:14:37.322Z,10.57
2023-03-03T12:17:13.218Z,10.29
2023-03-03T12:19:51.740Z,10.03
2023-03-03T12:22:31.178Z,10.55
2023-03-03T12:25:13.226Z,10.13
2023-03-03T12:27:49.825Z,10.49
2023-03-03T12:30:34.681Z,10.91
2023-03-03T12:33:20.062Z,10.19
2023-03-03T12:35:56.596Z,10.51
2023-03-03T12:38:35.251Z,10.61
2023-03-03T12:41:09.868Z,11.40
2023-03-03T12:43:54.161Z,11.39
2023-03-03T12:46:30.068Z,11.24
2023-03-03T12:48:57.756Z,11.66
2023-03-03T12:51:38.216Z,11.12
2023-03-03T12:54:25.964Z,12.02
2023-03-03T12:56:56.946Z,11.52
2023-03-03T12:59:36.231Z,11.51
2023-03-03T13:02:26.514Z,11.22
2023-03-03T13:05:01.831Z,11.11
2023-03-03T13:07:38.436Z,11.51
2023-03-03T13:10:17.866Z,11.15
2023-03-03T13:12:50.007Z,11.51
2023-03-03T13:15:31.616Z,10.78
2023-03-03T13:18:21.205Z,10.38
2023-03-03T13:20:52.330Z,10.91
2023-03-03T13:23:32.855Z,10.84
2023-03-03T13:26:07.765Z,11.09
2023-03-03T13:28:41.608Z,11.74
2023-03-03T13:31:15.468Z,11.50
2023-03-03T13:33:53.632Z,11.73
2023-03-03T13:36:26.633Z,11.31
2023-03-03T13:38:58.993Z,12.24
2023-03-03T13:41:32.336Z,12.34
2023-03-03T13:44:05.038Z,12.34
2023-03-03T13:46:41.850Z,12.16
2023-03-03T13:49:31.816Z,11.83
2023-03-03T13:52:04.524Z,11.66
2023-03-03T13:54:59.378Z,11.60
2023-03-03T13:57:53.879Z,10.94
2023-03-03T14:00:31.848Z,11.80
2023-03-03T14:03:28.969Z,11.30
2023-03-03T14:06:03.642Z,11.66
2023-03-03T14:09:02.205Z,11.12
2023-03-03T14:11:37.117Z,11.47
2023-03-03T14:14:14.820Z,11.03
2023-03-03T14:16:51.950Z,10.82
2023-03-03T14:19:24.865Z,11.72
2023-03-03T14:22:06.869Z,11.27
2023-03-03T14:25:01.597Z,11.26
2023-03-03T14:27:36.308Z,11.22
2023-03-03T14:30:31.068Z,11.10
2023-03-03T14:33:07.001Z,10.64
2023-03-03T14:35:36.680Z,11.30
2023-03-03T14:38:11.297Z,11.98
2023-03-03T14:40:42.853Z,12.17
2023-03-03T14:43:24.086Z,12.24
2023-03-03T14:45:52.754Z,12.28
2023-03-03T14:48:22.700Z,11.43
2023-03-03T14:50:53.381Z,11.30
2023-03-03T14:53:33.987Z,11.51
2023-03-03T14:56:23.642Z,11.90
2023-03-03T14:58:52.150Z,12.08
2023-03-03T15:01:30.947Z,11.64
2023-03-03T15:04:03.486Z,11.33
2023-03-03T15:06:41.626Z,11.77
2023-03-03T15:09:43.293Z,11.18
2023-03-03T15:12:24.479Z,12.02
2023-03-03T15:14:53.739Z,11.95
2023-03-03T15:17:28.738Z,12.09
2023-03-03T15:20:14.697Z,11.35
2023-03-03T15:22:48.652Z,10.86
2023-03-03T15:25:34.778Z,10.98
2023-03-03T15:28:23.514Z,10.26
2023-03-03T15:30:56.399Z,10.56
2023-03-03T15:33:30.560Z,10.49
2023-03-03T15:36:05.122Z,10.94
2023-03-03T15:38:44.937Z,10.31
2023-03-03T15:41:26.538Z,10.14
2023-03-03T15:44:13.388Z,10.81
2023-03-03T15:46:54.817Z,10.82
2023-03-03T15:49:42.335Z,10.87
2023-03-03T15:52:23.438Z,10.28
2023-03-03T15:55:01.586Z,9.72
2023-03-03T15:57:39.503Z,10.12
2023-03-03T16:00:55.777Z,9.86
2023-03-03T16:03:29.596Z,9.82
2023-03-03T16:06:02.301Z,9.91
2023-03-03T16:08:37.620Z,9.47
2023-03-03T16:11:11.832Z,9.70
2023-03-03T16:13:53.000Z,9.69
2023-03-03T16:16:32.150Z,9.40
2023-03-03T16:19:12.727Z,9.38
2023-03-03T16:22:08.921Z,9.18
2023-03-03T16:24:51.433Z,9.14
2023-03-03T16:27:24.621Z,9.16
2023-03-03T16:30:05.231Z,9.03
2023-03-03T16:32:41.820Z,8.97
2023-03-03T16:35:23.295Z,9.20
2023-03-03T16:37:59.086Z,9.15
2023-03-03T16:40:30.804Z,9.04
2023-03-03T16:43:06.841Z,8.90
2023-03-03T16:45:36.452Z,8.69
2023-03-03T16:48:27.273Z,8.70
2023-03-03T16:51:12.921Z,8.56
2023-03-03T16:53:52.047Z,8.47
2023-03-03T16:56:24.121Z,8.42
2023-03-03T16:59:14.820Z,8.38
2023-03-03T17:01:50.597Z,8.08
2023-03-03T17:04:35.637Z,8.45
2023-03-03T17:07:13.719Z,8.22
2023-03-03T17:09:53.086Z,8.02
2023-03-03T17:12:38.931Z,8.02
2023-03-03T17:15:16.334Z,7.99
2023-03-03T17:17:48.084Z,8.01
2023-03-03T17:20:31.167Z,7.98
2023-03-03T17:23:23.844Z,7.76
2023-03-03T17:26:00.239Z,7.75
2023-03-03T17:28:40.119Z,7.73
2023-03-03T17:31:14.372Z,7.44
2023-03-03T17:34:06.741Z,7.33
2023-03-03T17:36:49.417Z,7.38
2023-03-03T17:39:36.012Z,7.09
2023-03-03T17:42:10.526Z,7.09
2023-03-03T17:44:47.437Z,7.23
2023-03-03T17:47:32.140Z,7.06
2023-03-03T17:50:19.512Z,6.95
2023-03-03T17:53:14.483Z,6.91
2023-03-03T17:56:04.563Z,7.11
2023-03-03T17:59:04.989Z,6.98
2023-03-03T18:01:50.402Z,6.77
2023-03-03T18:04:31.584Z,6.44
2023-03-03T18:07:23.657Z,6.39
2023-03-03T18:10:26.187Z,6.57
2023-03-03T18:13:02.885Z,6.45
2023-03-03T18:15:45.244Z,6.31
2023-03-03T18:18:32.020Z,6.55
2023-03-03T18:21:08.968Z,6.45
2023-03-03T18:23:42.644Z,6.30
2023-03-03T18:26:41.248Z,6.20
2023-03-03T18:29:20.385Z,6.21
2023-03-03T18:32:01.257Z,5.91
2023-03-03T18:34:35.695Z,5.78
2023-03-03T18:37:08.439Z,5.90
2023-03-03T18:39:43.343Z,5.75
2023-03-03T18:42:37.669Z,5.60
2023-03-03T18:45:44.869Z,5.47
2023-03-03T18:48:13.965Z,5.40
2023-03-03T18:50:43.510Z,5.26
2023-03-03T18:53:26.756Z,5.09
2023-03-03T18:55:56.460Z,5.25
2023-03-03T18:58:52.787Z,5.22
2023-03-03T19:01:43.181Z,4.96
2023-03-03T19:04:19.211Z,4.63
2023-03-03T19:07:10.011Z,4.96
2023-03-03T19:09:57.073Z,4.93
2023-03-03T19:12:47.317Z,4.76
2023-03-03T19:15:56.436Z,4.68
2023-03-03T19:18:27.349Z,4.71
2023-03-03T19:20:59.426Z,4.28
2023-03-03T19:23:48.796Z,4.63
2023-03-03T19:26:50.589Z,4.83
2023-03-03T19:29:40.233Z,4.51
2023-03-03T19:32:29.377Z,4.71
2023-03-03T19:35:09.247Z,4.28
2023-03-03T19:37:48.259Z,4.45
2023-03-03T19:40:22.984Z,4.47
2023-03-03T19:43:02.095Z,4.36
2023-03-03T19:45:49.137Z,4.24
2023-03-03T19:48:28.266Z,4.32
2023-03-03T19:51:02.865Z,4.16
2023-03-03T19:53:38.117Z,4.00
2023-03-03T19:56:20.412Z,4.00
2023-03-03T19:59:01.953Z,3.76
2023-03-03T20:01:42.229Z,3.75
2023-03-03T20:04:54.035Z,3.47
2023-03-03T20:07:31.380Z,3.42
2023-03-03T20:10:08.574Z,3.48
2023-03-03T20:12:53.817Z,3.31
2023-03-03T20:15:29.732Z,3.18
2023-03-03T20:18:36.552Z,3.28
2023-03-03T20:21:14.082Z,3.42
2023-03-03T20:23:58.101Z,3.42
2023-03-03T20:26:33.108Z,3.20
2023-03-03T20:29:28.720Z,3.20
2023-03-03T20:32:06.269Z,3.29
2023-03-03T20:34:41.984Z,3.03
2023-03-03T20:37:15.599Z,2.95
2023-03-03T20:39:55.947Z,2.94
2023-03-03T20:42:39.078Z,3.01
2023-03-03T20:45:28.388Z,2.90
2023-03-03T20:48:11.648Z,2.81
2023-03-03T20:50:50.290Z,2.95
2023-03-03T20:53:27.556Z,2.77
2023-03-03T20:56:05.588Z,2.85
2023-03-03T20:58:44.013Z,2.59
2023-03-03T21:01:15.641Z,2.59
2023-03-03T21:03:45.308Z,2.62
2023-03-03T21:06:15.605Z,2.67
2023-03-03T21:08:53.300Z,2.62
2023-03-03T21:11:23.254Z,2.58
2023-03-03T21:13:54.075Z,2.78
2023-03-03T21:16:33.130Z,2.54
2023-03-03T21:19:03.297Z,2.67
2023-03-03T21:21:33.274Z,2.48
2023-03-03T21:24:02.578Z,2.31
2023-03-03T21:26:52.097Z,2.20
2023-03-03T21:29:22.674Z,2.28
2023-03-03T21:31:51.738Z,2.53
2023-03-03T21:34:30.688Z,2.56
2023-03-03T21:37:00.290Z,2.46
2023-03-03T21:39:32.158Z,2.52
2023-03-03T21:42:03.190Z,2.10
2023-03-03T21:44:40.128Z,1.84
2023-03-03T21:47:10.161Z,1.80
2023-03-03T21:49:42.010Z,1.74
2023-03-03T21:52:10.105Z,1.78
2023-03-03T21:54:39.540Z,1.75
2023-03-03T21:57:07.512Z,1.73
2023-03-03T21:59:35.299Z,1.75
2023-03-03T22:02:02.908Z,1.70
2023-03-03T22:04:30.788Z,1.62
2023-03-03T22:06:58.437Z,1.76
2023-03-03T22:09:26.843Z,1.60
2023-03-03T22:11:55.849Z,1.62
2023-03-03T22:14:23.553Z,1.53
2023-03-03T22:16:51.211Z,1.59
2023-03-03T22:19:18.788Z,1.45
2023-03-03T22:21:47.690Z,1.53
2023-03-03T22:24:15.563Z,1.69
2023-03-03T22:26:43.264Z,1.68
2023-03-03T22:29:12.440Z,1.72
2023-03-03T22:31:40.400Z,1.63
2023-03-03T22:34:08.288Z,1.71
2023-03-03T22:36:35.948Z,1.51
2023-03-03T22:39:03.579Z,1.54
2023-03-03T22:41:31.228Z,1.49
2023-03-03T22:43:58.926Z,1.52
2023-03-03T22:46:28.076Z,1.18
2023-03-03T22:48:55.945Z,1.20
2023-03-03T22:51:23.561Z,1.13
2023-03-03T22:53:51.152Z,1.04
2023-03-03T22:56:18.767Z,1.09
2023-03-03T22:58:46.373Z,1.13
2023-03-03T23:01:14.065Z,1.15
2023-03-03T23:03:43.368Z,1.19
2023-03-03T23:06:11.004Z,1.19
2023-03-03T23:08:38.589Z,1.06
2023-03-03T23:11:06.349Z,0.92
2023-03-03T23:13:35.143Z,0.81
2023-03-03T23:16:03.023Z,0.84
2023-03-03T23:18:31.021Z,1.09
2023-03-03T23:21:00.052Z,1.02
2023-03-03T23:23:29.473Z,0.85
2023-03-03T23:25:57.156Z,0.72
2023-03-03T23:28:24.894Z,0.69
2023-03-03T23:30:52.576Z,0.79
2023-03-03T23:33:20.396Z,0.76
2023-03-03T23:35:49.791Z,0.73
2023-03-03T23:38:18.802Z,0.90
2023-03-03T23:40:47.633Z,0.68
2023-03-03T23:43:15.369Z,0.46
2023-03-03T23:45:43.034Z,0.43
2023-03-03T23:48:11.177Z,0.54
2023-03-03T23:50:39.261Z,0.41
2023-03-03T23:53:08.073Z,0.36
2023-03-03T23:55:37.560Z,0.33
2023-03-03T23:58:05.864Z,0.38
